Stations météo

Publicité
Metz-Frescaty, France (7090): Température de l'air & dewpoint: 12.01.2018 06:00:00 - 18.01.2018 06:00:00 (CET)Metz-Frescaty, France (7090): Vitesse du vent & gusts: 12.01.2018 06:00:00 - 18.01.2018 06:00:00 (CET)Metz-Frescaty, France (7090): Direction du vent: 12.01.2018 06:00:00 - 18.01.2018 06:00:00 (CET)Metz-Frescaty, France (7090): Quantités de précipitations: 12.01.2018 06:00:00 - 18.01.2018 06:00:00 (CET)
Date & Time tt [°C] td [°C] ff [km/h] ff [knt] fx [km/h] fx [knt] dd rr [mm]
18.01.2018 06:00:00 3,3 2,1 24 13 46 25 SSW 3,0
18.01.2018 05:00:00 3,9 2,7 24 13 44 24 SSW 2,0
18.01.2018 04:00:00 4,0 2,8 18 10 37 20 SSW 0,8
18.01.2018 03:00:00 4,9 2,4 18 10 35 19 SW 0,0
18.01.2018 02:00:00 5,0 1,8 16 9 48 26 WSW 0,0
18.01.2018 01:00:00 4,8 1,8 18 10 48 26 W -
18.01.2018 00:00:00 4,6 2,0 22 12 48 26 W 0,0
17.01.2018 23:00:00 4,4 1,8 24 13 48 26 WSW 0,0
17.01.2018 22:00:00 4,4 1,9 21 11 48 26 WNW 0,0
17.01.2018 21:00:00 3,8 1,8 16 9 42 23 W 0,6
17.01.2018 20:00:00 3,7 1,1 15 8 46 25 WSW 0,0
17.01.2018 19:00:00 3,8 0,7 24 13 44 24 W -
17.01.2018 18:00:00 4,5 0,8 18 10 52 28 W 0,0
17.01.2018 17:00:00 4,0 1,0 21 11 52 28 W 0,8
17.01.2018 16:00:00 5,6 -0,1 28 15 50 27 W 0,0
17.01.2018 15:00:00 5,3 0,3 28 15 54 29 W 0,0
17.01.2018 14:00:00 5,7 0,6 26 14 48 26 W 0,0
17.01.2018 13:00:00 5,0 0,6 29 16 59 32 W -
17.01.2018 12:00:00 4,3 0,4 22 12 48 26 W 0,0
17.01.2018 11:00:00 3,5 0,4 24 13 52 28 W 0,0
17.01.2018 10:00:00 2,3 0,0 22 12 46 25 W 0,0
17.01.2018 09:00:00 1,0 0,0 28 15 63 34 W 0,2
17.01.2018 08:00:00 3,1 0,7 22 12 52 28 W 0,0
17.01.2018 07:00:00 3,2 0,1 29 16 61 33 W -
17.01.2018 06:00:00 3,1 0,5 28 15 46 25 W 0,0
17.01.2018 05:00:00 2,7 0,4 22 12 50 27 W 0,0
17.01.2018 04:00:00 2,8 0,4 26 14 50 27 W 0,0
17.01.2018 03:00:00 1,9 1,0 24 13 59 32 W 2,0
17.01.2018 02:00:00 5,1 2,4 22 12 48 26 W 0,0
17.01.2018 01:00:00 5,2 2,7 22 12 52 28 W -
17.01.2018 00:00:00 4,8 2,5 28 15 50 27 W 0,0
16.01.2018 23:00:00 4,9 2,9 22 12 42 23 WSW 0,2
16.01.2018 22:00:00 5,0 2,7 18 10 39 21 WSW 0,2
16.01.2018 21:00:00 5,1 3,6 18 10 34 18 WSW 0,0
16.01.2018 20:00:00 4,1 3,4 5 3 15 8 SW 0,2
16.01.2018 19:00:00 3,4 2,8 5 3 18 10 NW -
16.01.2018 18:00:00 3,8 2,8 11 6 39 21 WNW 0,6
16.01.2018 17:00:00 4,1 2,8 22 12 48 26 W 1,0
16.01.2018 16:00:00 7,2 3,2 21 11 50 27 WSW 0,0
16.01.2018 15:00:00 7,5 3,4 29 16 57 31 W 0,0
16.01.2018 14:00:00 6,0 3,0 24 13 55 30 W 0,2
16.01.2018 13:00:00 7,2 2,1 24 13 48 26 WSW -
16.01.2018 12:00:00 7,1 4,7 18 10 41 22 W 0,8
16.01.2018 11:00:00 6,6 5,7 13 7 63 34 WNW 2,0
16.01.2018 10:00:00 7,8 5,6 18 10 44 24 WSW 0,2
16.01.2018 09:00:00 7,7 5,0 24 13 59 32 WSW 0,0
16.01.2018 08:00:00 7,6 5,4 26 14 52 28 W 0,2
16.01.2018 07:00:00 8,0 5,6 26 14 61 33 W -
16.01.2018 06:00:00 8,0 6,1 22 12 46 25 W 0,2
16.01.2018 05:00:00 7,6 6,1 16 9 31 17 WSW 2,0
16.01.2018 04:00:00 7,8 5,8 21 11 54 29 W 0,2
16.01.2018 03:00:00 7,8 5,8 24 13 52 28 WSW 1,0
16.01.2018 02:00:00 8,0 5,8 16 9 44 24 WSW 0,0
16.01.2018 01:00:00 8,0 6,1 16 9 37 20 W -
16.01.2018 00:00:00 8,0 6,0 22 12 41 22 WSW 0,2
15.01.2018 23:00:00 7,3 6,2 13 7 35 19 SW 1,0
15.01.2018 22:00:00 6,5 5,6 18 10 52 28 SSW 0,4
15.01.2018 21:00:00 6,3 4,9 26 14 61 33 SW 0,8
15.01.2018 20:00:00 5,5 4,3 28 15 55 30 SSW 1,0
15.01.2018 19:00:00 5,2 3,7 22 12 52 28 SSW -
15.01.2018 18:00:00 5,8 4,1 16 9 52 28 SSW 2,0
15.01.2018 17:00:00 6,4 4,1 16 9 34 18 S 0,4
15.01.2018 16:00:00 7,1 3,3 15 8 52 28 S 0,0
15.01.2018 15:00:00 7,2 3,1 18 10 52 28 SSW 0,0
15.01.2018 14:00:00 7,7 2,6 24 13 50 27 SW 0,0
15.01.2018 13:00:00 7,4 2,5 18 10 39 21 SSW -
15.01.2018 12:00:00 6,6 3,2 11 6 24 13 SSW 0,0
15.01.2018 11:00:00 4,7 2,7 11 6 22 12 S 0,0
15.01.2018 10:00:00 3,3 2,0 9 5 22 12 SSE 0,0
15.01.2018 09:00:00 2,7 1,5 8 4 16 9 S 0,0
15.01.2018 08:00:00 0,0 0,0 0 0 2 1 N 0,0
15.01.2018 07:00:00 -0,5 -0,5 0 0 0 0 N -
15.01.2018 06:00:00 -1,1 -1,1 0 0 0 0 N 0,0
15.01.2018 05:00:00 -2,1 -2,2 0 0 0 0 N 0,0
15.01.2018 04:00:00 -1,9 -2,0 0 0 4 2 N 0,0
15.01.2018 03:00:00 -1,9 -2,0 0 0 4 2 N 0,0
15.01.2018 02:00:00 -2,2 -2,3 0 0 4 2 N 0,0
15.01.2018 01:00:00 -2,6 -2,7 0 0 2 1 N -
15.01.2018 00:00:00 -2,3 -2,4 0 0 4 2 N 0,0
14.01.2018 23:00:00 -2,2 -2,5 0 0 2 1 N 0,0
14.01.2018 22:00:00 -1,8 -2,1 0 0 4 2 N 0,0
14.01.2018 21:00:00 -1,3 -1,7 2 1 4 2 W 0,0
14.01.2018 20:00:00 -0,6 -1,3 0 0 5 3 N 0,0
14.01.2018 19:00:00 0,7 -0,8 4 2 11 6 S -
14.01.2018 18:00:00 1,2 -0,7 4 2 9 5 SE 0,0
14.01.2018 17:00:00 3,7 0,4 8 4 15 8 ESE 0,0
14.01.2018 16:00:00 5,6 0,8 9 5 18 10 ESE 0,0
14.01.2018 15:00:00 6,0 0,9 11 6 18 10 E 0,0
14.01.2018 14:00:00 5,8 1,1 11 6 21 11 ESE 0,0
14.01.2018 13:00:00 5,2 0,9 13 7 26 14 ESE -
14.01.2018 12:00:00 4,0 0,5 15 8 24 13 ESE 0,0
14.01.2018 11:00:00 3,1 0,3 5 3 11 6 E 0,0
14.01.2018 10:00:00 1,8 1,1 2 1 8 4 ENE 0,0
14.01.2018 09:00:00 -2,0 -2,1 0 0 4 2 N 0,0
14.01.2018 08:00:00 -2,5 -2,6 0 0 4 2 N 0,0
14.01.2018 07:00:00 -2,2 -2,5 2 1 9 5 N -
14.01.2018 06:00:00 -1,6 -1,9 0 0 8 4 N 0,0
14.01.2018 05:00:00 -1,8 -1,9 2 1 8 4 NE 0,0
14.01.2018 04:00:00 -2,0 -2,1 2 1 4 2 NNW 0,0
14.01.2018 03:00:00 -1,8 -2,1 0 0 5 3 N 0,0
14.01.2018 02:00:00 -1,0 -1,6 4 2 9 5 E 0,0
14.01.2018 01:00:00 0,1 -1,7 4 2 11 6 E -
14.01.2018 00:00:00 0,2 -1,1 4 2 13 7 E 0,0
13.01.2018 23:00:00 -1,1 -1,7 0 0 8 4 N 0,0
13.01.2018 22:00:00 -0,6 -1,3 0 0 11 6 N 0,0
13.01.2018 21:00:00 0,9 -0,6 5 3 11 6 NE 0,0
13.01.2018 20:00:00 0,8 -1,0 2 1 13 7 NNE 0,0
13.01.2018 19:00:00 1,3 -0,5 2 1 16 9 ENE -
13.01.2018 18:00:00 2,0 -0,8 9 5 16 9 ENE 0,0
13.01.2018 17:00:00 3,8 -0,2 9 5 21 11 E 0,0
13.01.2018 16:00:00 5,2 0,4 13 7 31 17 E 0,0
13.01.2018 15:00:00 5,1 0,5 21 11 34 18 E 0,0
13.01.2018 14:00:00 5,3 0,7 15 8 26 14 E 0,0
13.01.2018 13:00:00 5,2 1,3 16 9 29 16 ENE -
13.01.2018 12:00:00 4,5 0,6 16 9 28 15 E 0,0
13.01.2018 11:00:00 4,3 1,0 15 8 26 14 E 0,0
13.01.2018 10:00:00 3,8 0,8 13 7 24 13 E 0,0
13.01.2018 09:00:00 3,0 0,9 11 6 18 10 E 0,0
13.01.2018 08:00:00 1,6 0,3 8 4 15 8 E 0,0
13.01.2018 07:00:00 2,2 0,6 8 4 16 9 ENE -
13.01.2018 06:00:00 3,4 1,4 9 5 22 12 E 0,0
13.01.2018 05:00:00 3,7 1,9 9 5 21 11 ESE 0,0
13.01.2018 04:00:00 3,8 1,8 15 8 22 12 ESE 0,0
13.01.2018 03:00:00 3,7 2,2 5 3 16 9 E 0,0
13.01.2018 02:00:00 3,6 2,6 8 4 16 9 E 0,0
13.01.2018 01:00:00 3,7 3,0 8 4 16 9 ENE -
13.01.2018 00:00:00 3,3 3,3 2 1 11 6 ESE 0,0
12.01.2018 23:00:00 2,9 2,9 9 5 15 8 ESE 0,0
12.01.2018 22:00:00 0,7 0,7 4 2 8 4 ENE 0,0
12.01.2018 21:00:00 1,6 1,6 4 2 8 4 N 0,0
12.01.2018 20:00:00 2,1 2,1 4 2 5 3 N 0,0
12.01.2018 19:00:00 2,6 2,5 4 2 5 3 N -
12.01.2018 18:00:00 4,2 3,5 4 2 9 5 N 0,0
12.01.2018 17:00:00 6,4 5,0 4 2 11 6 N 0,0
12.01.2018 16:00:00 7,8 5,3 8 4 11 6 NNE 0,0
12.01.2018 15:00:00 7,9 5,4 8 4 13 7 N 0,0
12.01.2018 14:00:00 8,2 5,7 8 4 13 7 N 0,0
12.01.2018 13:00:00 7,5 5,6 9 5 15 8 NNE -
12.01.2018 12:00:00 7,2 5,8 9 5 16 9 NNE 0,0
12.01.2018 11:00:00 6,4 5,5 8 4 13 7 NNE 0,0
12.01.2018 10:00:00 5,7 5,4 5 3 9 5 NNE 0,0
12.01.2018 09:00:00 5,2 5,2 4 2 8 4 N 0,0
12.01.2018 08:00:00 5,0 5,0 4 2 9 5 N 0,0
12.01.2018 07:00:00 4,5 4,5 0 0 5 3 N -
12.01.2018 06:00:00 4,4 4,4 2 1 5 3 N 0,0

tt = Température de l'air
td = dewpoint
ff = Vitesse du vent
fx = gusts
dd = Direction du vent
rr = Quantités de précipitations

stations d'obs. à proximité